首页
METAR-TAF:

METAR-TAF

机场 :

沙托鲁, 法国

纬度: 46-51N, 经度: 001-43E, 海拔: 160米

当前天气观测

该预报发布于14分钟前的15:00 UTC
风速12节,风向东北,在之间变化
温度 10°C
湿度 37%
气压 1024 hPa
能见度10公里或以上
1500米以下无云,无积雨云

METAR: LFLX 151500Z AUTO 05012KT 360V090 CAVOK 10/M04 Q1024 BECMG 05015G25KT

时间: 17:14 (15:14 UTC)

预报

该预报发布于4小时和14分钟前的11:00 UTC
预报有效从15日的 12点(UTC)到 16日的 18点(UTC)
风速15节,风向东北,有时为25节阵风
能见度10公里或以上
1500米以下无云,无积雨云
成为
从 15日的 18点(UTC)到 15日的 20点(UTC)
风速10节,风向东北
短暂存在
从 16日的 10点(UTC)到 16日的 18点(UTC)
风速15节,风向东北,有时为25节阵风

TAF: LFLX 151100Z 1512/1618 05015G25KT CAVOK BECMG 1518/1520 05010KT TEMPO 1610/1618 04015G25KT

超过4000个机场的气象观测和天气预报(METAR&TAF报告)。

可查询的气象台以黄色和红色小点在地图上表示。

将鼠标移到小点上方,可查看气象台名称。

然后点击查看天气观测和预报。

如需切换地图:点击带黑十字的绿色按钮放大地图;点击带横线的绿色按钮缩小地图;或者点击绿色箭头查看邻近地区的地图。


METAR-TAF: